sensor_id;sensor_type;location;lat;lon;timestamp;temperature;humidity
42333;DHT22;27984;51.476;5.702;2022-11-11T00:00:57;8.60;99.90
42333;DHT22;27984;51.476;5.702;2022-11-11T00:03:23;8.70;99.90
42333;DHT22;27984;51.476;5.702;2022-11-11T00:05:49;8.60;99.90
42333;DHT22;27984;51.476;5.702;2022-11-11T00:08:14;8.60;99.90
42333;DHT22;27984;51.476;5.702;2022-11-11T00:10:40;8.60;99.90
42333;DHT22;27984;51.476;5.702;2022-11-11T00:13:06;8.60;99.90
42333;DHT22;27984;51.476;5.702;2022-11-11T00:15:36;8.60;99.90
42333;DHT22;27984;51.476;5.702;2022-11-11T00:18:04;8.50;99.90
42333;DHT22;27984;51.476;5.702;2022-11-11T00:20:48;8.60;99.90
42333;DHT22;27984;51.476;5.702;2022-11-11T00:23:32;8.50;99.90
42333;DHT22;27984;51.476;5.702;2022-11-11T00:26:16;8.50;99.90
42333;DHT22;27984;51.476;5.702;2022-11-11T00:28:42;8.50;99.90
42333;DHT22;27984;51.476;5.702;2022-11-11T00:31:10;8.50;99.90
42333;DHT22;27984;51.476;5.702;2022-11-11T00:33:36;8.50;99.90
42333;DHT22;27984;51.476;5.702;2022-11-11T00:36:03;8.50;99.90
42333;DHT22;27984;51.476;5.702;2022-11-11T00:38:28;8.60;99.90
42333;DHT22;27984;51.476;5.702;2022-11-11T00:41:16;8.70;99.90
42333;DHT22;27984;51.476;5.702;2022-11-11T00:43:43;8.70;99.90
42333;DHT22;27984;51.476;5.702;2022-11-11T00:46:09;8.80;99.90
42333;DHT22;27984;51.476;5.702;2022-11-11T00:48:53;8.90;99.90
42333;DHT22;27984;51.476;5.702;2022-11-11T00:51:38;9.00;99.90
42333;DHT22;27984;51.476;5.702;2022-11-11T00:54:03;9.00;99.90
42333;DHT22;27984;51.476;5.702;2022-11-11T00:56:29;9.10;99.90
42333;DHT22;27984;51.476;5.702;2022-11-11T00:58:55;9.10;99.90
42333;DHT22;27984;51.476;5.702;2022-11-11T01:01:20;9.20;99.90
42333;DHT22;27984;51.476;5.702;2022-11-11T01:03:46;9.20;99.90
42333;DHT22;27984;51.476;5.702;2022-11-11T01:06:12;9.30;99.90
42333;DHT22;27984;51.476;5.702;2022-11-11T01:08:40;9.30;99.90
42333;DHT22;27984;51.476;5.702;2022-11-11T01:11:14;9.30;99.90
42333;DHT22;27984;51.476;5.702;2022-11-11T01:13:40;9.40;99.90
42333;DHT22;27984;51.476;5.702;2022-11-11T01:16:10;9.40;99.90
42333;DHT22;27984;51.476;5.702;2022-11-11T01:18:36;9.50;99.90
42333;DHT22;27984;51.476;5.702;2022-11-11T01:21:03;9.40;99.90
42333;DHT22;27984;51.476;5.702;2022-11-11T01:23:30;9.50;99.90
42333;DHT22;27984;51.476;5.702;2022-11-11T01:26:22;9.50;99.90
42333;DHT22;27984;51.476;5.702;2022-11-11T01:28:54;9.50;99.90
42333;DHT22;27984;51.476;5.702;2022-11-11T01:31:24;9.50;99.90
42333;DHT22;27984;51.476;5.702;2022-11-11T01:33:50;9.60;99.90
42333;DHT22;27984;51.476;5.702;2022-11-11T01:36:19;9.60;99.90
42333;DHT22;27984;51.476;5.702;2022-11-11T01:38:49;9.60;99.90
42333;DHT22;27984;51.476;5.702;2022-11-11T01:41:18;9.60;99.90
42333;DHT22;27984;51.476;5.702;2022-11-11T01:44:00;9.60;99.90
42333;DHT22;27984;51.476;5.702;2022-11-11T01:49:26;9.60;99.90
42333;DHT22;27984;51.476;5.702;2022-11-11T01:52:12;9.60;99.90
42333;DHT22;27984;51.476;5.702;2022-11-11T01:57:08;9.60;99.90
42333;DHT22;27984;51.476;5.702;2022-11-11T01:59:36;9.60;99.90
42333;DHT22;27984;51.476;5.702;2022-11-11T02:02:14;9.60;99.90
42333;DHT22;27984;51.476;5.702;2022-11-11T02:04:43;9.60;99.90
42333;DHT22;27984;51.476;5.702;2022-11-11T02:07:28;9.60;99.90
42333;DHT22;27984;51.476;5.702;2022-11-11T02:09:56;9.60;99.90
42333;DHT22;27984;51.476;5.702;2022-11-11T02:12:22;9.60;99.90
42333;DHT22;27984;51.476;5.702;2022-11-11T02:15:06;9.70;99.90
42333;DHT22;27984;51.476;5.702;2022-11-11T02:17:32;9.70;99.90
42333;DHT22;27984;51.476;5.702;2022-11-11T02:20:00;9.60;99.90
42333;DHT22;27984;51.476;5.702;2022-11-11T02:22:48;9.60;99.90
42333;DHT22;27984;51.476;5.702;2022-11-11T02:25:18;9.60;99.90
42333;DHT22;27984;51.476;5.702;2022-11-11T02:27:49;9.60;99.90
42333;DHT22;27984;51.476;5.702;2022-11-11T02:30:17;9.70;99.90
42333;DHT22;27984;51.476;5.702;2022-11-11T02:32:46;9.60;99.90
42333;DHT22;27984;51.476;5.702;2022-11-11T02:35:15;9.70;99.90
42333;DHT22;27984;51.476;5.702;2022-11-11T02:37:43;9.60;99.90
42333;DHT22;27984;51.476;5.702;2022-11-11T02:40:12;9.60;99.90
42333;DHT22;27984;51.476;5.702;2022-11-11T02:42:38;9.60;99.90
42333;DHT22;27984;51.476;5.702;2022-11-11T02:45:04;9.50;99.90
42333;DHT22;27984;51.476;5.702;2022-11-11T02:47:30;9.50;99.90
42333;DHT22;27984;51.476;5.702;2022-11-11T02:49:55;9.60;99.90
42333;DHT22;27984;51.476;5.702;2022-11-11T02:52:23;9.60;99.90
42333;DHT22;27984;51.476;5.702;2022-11-11T02:54:51;9.50;99.90
42333;DHT22;27984;51.476;5.702;2022-11-11T02:57:17;9.50;99.90
42333;DHT22;27984;51.476;5.702;2022-11-11T02:59:42;9.50;99.90
42333;DHT22;27984;51.476;5.702;2022-11-11T03:02:08;9.50;99.90
42333;DHT22;27984;51.476;5.702;2022-11-11T03:04:34;9.50;99.90
42333;DHT22;27984;51.476;5.702;2022-11-11T03:07:00;9.50;99.90
42333;DHT22;27984;51.476;5.702;2022-11-11T03:09:25;9.50;99.90
42333;DHT22;27984;51.476;5.702;2022-11-11T03:11:51;9.40;99.90
42333;DHT22;27984;51.476;5.702;2022-11-11T03:14:17;9.40;99.90
42333;DHT22;27984;51.476;5.702;2022-11-11T03:16:45;9.30;99.90
42333;DHT22;27984;51.476;5.702;2022-11-11T03:19:29;9.30;99.90
42333;DHT22;27984;51.476;5.702;2022-11-11T03:21:54;9.30;99.90
42333;DHT22;27984;51.476;5.702;2022-11-11T03:24:23;9.30;99.90
42333;DHT22;27984;51.476;5.702;2022-11-11T03:26:48;9.30;99.90
42333;DHT22;27984;51.476;5.702;2022-11-11T03:29:14;9.30;99.90
42333;DHT22;27984;51.476;5.702;2022-11-11T03:31:45;9.30;99.90
42333;DHT22;27984;51.476;5.702;2022-11-11T03:34:11;9.30;99.90
42333;DHT22;27984;51.476;5.702;2022-11-11T03:36:45;9.30;99.90
42333;DHT22;27984;51.476;5.702;2022-11-11T03:39:30;9.30;99.90
42333;DHT22;27984;51.476;5.702;2022-11-11T03:41:58;9.30;99.90
42333;DHT22;27984;51.476;5.702;2022-11-11T03:44:24;9.30;99.90
42333;DHT22;27984;51.476;5.702;2022-11-11T03:46:53;9.30;99.90
42333;DHT22;27984;51.476;5.702;2022-11-11T03:49:18;9.30;99.90
42333;DHT22;27984;51.476;5.702;2022-11-11T03:51:44;9.20;99.90
42333;DHT22;27984;51.476;5.702;2022-11-11T03:54:10;9.20;99.90
42333;DHT22;27984;51.476;5.702;2022-11-11T03:56:35;9.10;99.90
42333;DHT22;27984;51.476;5.702;2022-11-11T03:59:01;9.10;99.90
42333;DHT22;27984;51.476;5.702;2022-11-11T04:01:27;9.10;99.90
42333;DHT22;27984;51.476;5.702;2022-11-11T04:04:11;9.00;99.90
42333;DHT22;27984;51.476;5.702;2022-11-11T04:06:55;8.90;99.90
42333;DHT22;27984;51.476;5.702;2022-11-11T04:09:39;8.80;99.90
42333;DHT22;27984;51.476;5.702;2022-11-11T04:12:24;8.70;99.90
42333;DHT22;27984;51.476;5.702;2022-11-11T04:14:50;8.50;99.90
42333;DHT22;27984;51.476;5.702;2022-11-11T04:17:34;8.40;99.90
42333;DHT22;27984;51.476;5.702;2022-11-11T04:20:03;8.30;99.90
42333;DHT22;27984;51.476;5.702;2022-11-11T04:22:47;8.10;99.90
42333;DHT22;27984;51.476;5.702;2022-11-11T04:25:18;8.00;99.90
42333;DHT22;27984;51.476;5.702;2022-11-11T04:28:06;7.90;99.90
42333;DHT22;27984;51.476;5.702;2022-11-11T04:30:51;7.80;99.90
42333;DHT22;27984;51.476;5.702;2022-11-11T04:33:16;7.80;99.90
42333;DHT22;27984;51.476;5.702;2022-11-11T04:35:42;7.80;99.90
42333;DHT22;27984;51.476;5.702;2022-11-11T04:38:08;7.70;99.90
42333;DHT22;27984;51.476;5.702;2022-11-11T04:40:52;7.70;99.90
42333;DHT22;27984;51.476;5.702;2022-11-11T04:43:30;7.60;99.90
42333;DHT22;27984;51.476;5.702;2022-11-11T04:46:00;7.60;99.90
42333;DHT22;27984;51.476;5.702;2022-11-11T04:48:25;7.50;99.90
42333;DHT22;27984;51.476;5.702;2022-11-11T04:50:52;7.60;99.90
42333;DHT22;27984;51.476;5.702;2022-11-11T04:53:18;7.50;99.90
42333;DHT22;27984;51.476;5.702;2022-11-11T04:55:44;7.50;99.90
42333;DHT22;27984;51.476;5.702;2022-11-11T04:58:33;7.40;99.90
42333;DHT22;27984;51.476;5.702;2022-11-11T05:00:59;7.40;99.90
42333;DHT22;27984;51.476;5.702;2022-11-11T05:03:25;7.30;99.90
42333;DHT22;27984;51.476;5.702;2022-11-11T05:05:58;7.40;99.90
42333;DHT22;27984;51.476;5.702;2022-11-11T05:08:44;7.30;99.90
42333;DHT22;27984;51.476;5.702;2022-11-11T05:11:24;7.30;99.90
42333;DHT22;27984;51.476;5.702;2022-11-11T05:13:51;7.30;99.90
42333;DHT22;27984;51.476;5.702;2022-11-11T05:16:48;7.20;99.90
42333;DHT22;27984;51.476;5.702;2022-11-11T05:19:35;7.20;99.90
42333;DHT22;27984;51.476;5.702;2022-11-11T05:22:29;7.20;99.90
42333;DHT22;27984;51.476;5.702;2022-11-11T05:25:11;7.20;99.90
42333;DHT22;27984;51.476;5.702;2022-11-11T05:27:56;7.10;99.90
42333;DHT22;27984;51.476;5.702;2022-11-11T05:30:22;7.10;99.90
42333;DHT22;27984;51.476;5.702;2022-11-11T05:32:53;7.10;99.90
42333;DHT22;27984;51.476;5.702;2022-11-11T05:35:19;7.10;99.90
42333;DHT22;27984;51.476;5.702;2022-11-11T05:37:44;7.00;99.90
42333;DHT22;27984;51.476;5.702;2022-11-11T05:40:33;7.10;99.90
42333;DHT22;27984;51.476;5.702;2022-11-11T05:42:58;7.10;99.90
42333;DHT22;27984;51.476;5.702;2022-11-11T05:45:24;7.10;99.90
42333;DHT22;27984;51.476;5.702;2022-11-11T05:47:52;7.10;99.90
42333;DHT22;27984;51.476;5.702;2022-11-11T05:50:18;7.00;99.90
42333;DHT22;27984;51.476;5.702;2022-11-11T05:52:47;7.00;99.90
42333;DHT22;27984;51.476;5.702;2022-11-11T05:55:14;7.00;99.90
42333;DHT22;27984;51.476;5.702;2022-11-11T05:57:43;7.00;99.90
42333;DHT22;27984;51.476;5.702;2022-11-11T06:00:09;7.00;99.90
42333;DHT22;27984;51.476;5.702;2022-11-11T06:02:35;7.00;99.90
42333;DHT22;27984;51.476;5.702;2022-11-11T06:05:03;7.00;99.90
42333;DHT22;27984;51.476;5.702;2022-11-11T06:07:29;6.90;99.90
42333;DHT22;27984;51.476;5.702;2022-11-11T06:09:55;6.90;99.90
42333;DHT22;27984;51.476;5.702;2022-11-11T06:12:42;6.90;99.90
42333;DHT22;27984;51.476;5.702;2022-11-11T06:15:27;6.90;99.90
42333;DHT22;27984;51.476;5.702;2022-11-11T06:17:52;6.90;99.90
42333;DHT22;27984;51.476;5.702;2022-11-11T06:20:21;6.90;99.90
42333;DHT22;27984;51.476;5.702;2022-11-11T06:22:47;6.80;99.90
42333;DHT22;27984;51.476;5.702;2022-11-11T06:25:29;6.80;99.90
42333;DHT22;27984;51.476;5.702;2022-11-11T06:28:14;6.80;99.90
42333;DHT22;27984;51.476;5.702;2022-11-11T06:30:41;6.80;99.90
42333;DHT22;27984;51.476;5.702;2022-11-11T06:33:10;6.80;99.90
42333;DHT22;27984;51.476;5.702;2022-11-11T06:35:42;6.70;99.90
42333;DHT22;27984;51.476;5.702;2022-11-11T06:38:07;6.80;99.90
42333;DHT22;27984;51.476;5.702;2022-11-11T06:40:33;6.80;99.90
42333;DHT22;27984;51.476;5.702;2022-11-11T06:42:59;6.80;99.90
42333;DHT22;27984;51.476;5.702;2022-11-11T06:45:27;6.80;99.90
42333;DHT22;27984;51.476;5.702;2022-11-11T06:47:53;6.80;99.90
42333;DHT22;27984;51.476;5.702;2022-11-11T06:50:22;6.80;99.90
42333;DHT22;27984;51.476;5.702;2022-11-11T06:52:50;6.80;99.90
42333;DHT22;27984;51.476;5.702;2022-11-11T06:55:16;6.80;99.90
42333;DHT22;27984;51.476;5.702;2022-11-11T06:57:41;6.70;99.90
42333;DHT22;27984;51.476;5.702;2022-11-11T07:00:08;6.70;99.90
42333;DHT22;27984;51.476;5.702;2022-11-11T07:02:33;6.70;99.90
42333;DHT22;27984;51.476;5.702;2022-11-11T07:04:59;6.80;99.90
42333;DHT22;27984;51.476;5.702;2022-11-11T07:07:25;6.80;99.90
42333;DHT22;27984;51.476;5.702;2022-11-11T07:09:51;6.80;99.90
42333;DHT22;27984;51.476;5.702;2022-11-11T07:12:19;6.80;99.90
42333;DHT22;27984;51.476;5.702;2022-11-11T07:14:48;6.80;99.90
42333;DHT22;27984;51.476;5.702;2022-11-11T07:17:14;6.90;99.90
42333;DHT22;27984;51.476;5.702;2022-11-11T07:19:39;6.90;99.90
42333;DHT22;27984;51.476;5.702;2022-11-11T07:22:05;6.90;99.90
42333;DHT22;27984;51.476;5.702;2022-11-11T07:24:31;6.90;99.90
42333;DHT22;27984;51.476;5.702;2022-11-11T07:26:59;6.90;99.90
42333;DHT22;27984;51.476;5.702;2022-11-11T07:29:26;7.00;99.90
42333;DHT22;27984;51.476;5.702;2022-11-11T07:31:53;6.90;99.90
42333;DHT22;27984;51.476;5.702;2022-11-11T07:34:19;7.00;99.90
42333;DHT22;27984;51.476;5.702;2022-11-11T07:36:44;7.00;99.90
42333;DHT22;27984;51.476;5.702;2022-11-11T07:39:13;7.10;99.90
42333;DHT22;27984;51.476;5.702;2022-11-11T07:41:41;7.10;99.90
42333;DHT22;27984;51.476;5.702;2022-11-11T07:44:07;7.20;99.90
42333;DHT22;27984;51.476;5.702;2022-11-11T07:46:34;7.20;99.90
42333;DHT22;27984;51.476;5.702;2022-11-11T07:49:00;7.20;99.90
42333;DHT22;27984;51.476;5.702;2022-11-11T07:51:25;7.30;99.90
42333;DHT22;27984;51.476;5.702;2022-11-11T07:53:51;7.30;99.90
42333;DHT22;27984;51.476;5.702;2022-11-11T07:56:17;7.40;99.90
42333;DHT22;27984;51.476;5.702;2022-11-11T07:58:42;7.50;99.90
42333;DHT22;27984;51.476;5.702;2022-11-11T08:01:11;7.50;99.90
42333;DHT22;27984;51.476;5.702;2022-11-11T08:03:40;7.60;99.90
42333;DHT22;27984;51.476;5.702;2022-11-11T08:06:18;7.70;99.90
42333;DHT22;27984;51.476;5.702;2022-11-11T08:08:44;7.70;99.90
42333;DHT22;27984;51.476;5.702;2022-11-11T08:11:10;7.80;99.90
42333;DHT22;27984;51.476;5.702;2022-11-11T08:13:36;7.80;99.90
42333;DHT22;27984;51.476;5.702;2022-11-11T08:16:08;7.80;99.90
42333;DHT22;27984;51.476;5.702;2022-11-11T08:18:40;7.90;99.90
42333;DHT22;27984;51.476;5.702;2022-11-11T08:21:06;8.00;99.90
42333;DHT22;27984;51.476;5.702;2022-11-11T08:23:32;8.10;99.90
42333;DHT22;27984;51.476;5.702;2022-11-11T08:26:02;8.20;99.90
42333;DHT22;27984;51.476;5.702;2022-11-11T08:28:29;8.30;99.90
42333;DHT22;27984;51.476;5.702;2022-11-11T08:30:58;8.30;99.90
42333;DHT22;27984;51.476;5.702;2022-11-11T08:33:27;8.40;99.90
42333;DHT22;27984;51.476;5.702;2022-11-11T08:35:54;8.50;99.90
42333;DHT22;27984;51.476;5.702;2022-11-11T08:38:23;8.50;99.90
42333;DHT22;27984;51.476;5.702;2022-11-11T08:40:50;8.50;99.90
42333;DHT22;27984;51.476;5.702;2022-11-11T08:43:15;8.60;99.90
42333;DHT22;27984;51.476;5.702;2022-11-11T08:45:42;8.70;99.90
42333;DHT22;27984;51.476;5.702;2022-11-11T08:48:11;8.80;99.90
42333;DHT22;27984;51.476;5.702;2022-11-11T08:50:37;8.80;99.90
42333;DHT22;27984;51.476;5.702;2022-11-11T08:53:06;8.90;99.90
42333;DHT22;27984;51.476;5.702;2022-11-11T08:55:33;9.10;99.90
42333;DHT22;27984;51.476;5.702;2022-11-11T08:58:01;9.20;99.90
42333;DHT22;27984;51.476;5.702;2022-11-11T09:00:27;9.30;99.90
42333;DHT22;27984;51.476;5.702;2022-11-11T09:02:53;9.50;99.90
42333;DHT22;27984;51.476;5.702;2022-11-11T09:05:19;9.80;99.90
42333;DHT22;27984;51.476;5.702;2022-11-11T09:07:45;9.90;99.90
42333;DHT22;27984;51.476;5.702;2022-11-11T09:10:10;10.10;99.90
42333;DHT22;27984;51.476;5.702;2022-11-11T09:12:36;10.40;99.90
42333;DHT22;27984;51.476;5.702;2022-11-11T09:15:02;10.50;99.90
42333;DHT22;27984;51.476;5.702;2022-11-11T09:17:28;10.60;99.90
42333;DHT22;27984;51.476;5.702;2022-11-11T09:19:53;10.80;99.90
42333;DHT22;27984;51.476;5.702;2022-11-11T09:22:19;11.00;99.90
42333;DHT22;27984;51.476;5.702;2022-11-11T09:24:45;11.10;99.90
42333;DHT22;27984;51.476;5.702;2022-11-11T09:27:10;11.30;99.90
42333;DHT22;27984;51.476;5.702;2022-11-11T09:29:36;11.40;99.90
42333;DHT22;27984;51.476;5.702;2022-11-11T09:32:02;11.40;99.90
42333;DHT22;27984;51.476;5.702;2022-11-11T09:34:28;11.50;99.90
42333;DHT22;27984;51.476;5.702;2022-11-11T09:36:56;11.70;99.90
42333;DHT22;27984;51.476;5.702;2022-11-11T09:39:24;12.00;99.90
42333;DHT22;27984;51.476;5.702;2022-11-11T09:42:14;12.00;99.90
42333;DHT22;27984;51.476;5.702;2022-11-11T09:47:48;12.80;99.90
42333;DHT22;27984;51.476;5.702;2022-11-11T09:50:21;13.00;99.90
42333;DHT22;27984;51.476;5.702;2022-11-11T09:52:56;13.30;99.90
42333;DHT22;27984;51.476;5.702;2022-11-11T09:55:31;13.10;99.90
42333;DHT22;27984;51.476;5.702;2022-11-11T09:58:04;12.90;99.90
42333;DHT22;27984;51.476;5.702;2022-11-11T10:00:36;12.90;99.90
42333;DHT22;27984;51.476;5.702;2022-11-11T10:03:06;13.30;99.90
42333;DHT22;27984;51.476;5.702;2022-11-11T10:05:48;13.40;99.90
42333;DHT22;27984;51.476;5.702;2022-11-11T10:08:45;13.90;99.90
42333;DHT22;27984;51.476;5.702;2022-11-11T10:14:00;14.60;99.90
42333;DHT22;27984;51.476;5.702;2022-11-11T10:19:47;15.30;99.90
42333;DHT22;27984;51.476;5.702;2022-11-11T10:22:26;15.50;99.90
42333;DHT22;27984;51.476;5.702;2022-11-11T10:25:13;15.30;99.90
42333;DHT22;27984;51.476;5.702;2022-11-11T10:27:47;15.30;99.90
42333;DHT22;27984;51.476;5.702;2022-11-11T10:32:28;15.50;99.90
42333;DHT22;27984;51.476;5.702;2022-11-11T10:35:08;15.40;99.90
42333;DHT22;27984;51.476;5.702;2022-11-11T10:37:40;15.30;99.90
42333;DHT22;27984;51.476;5.702;2022-11-11T10:40:28;15.70;99.90
42333;DHT22;27984;51.476;5.702;2022-11-11T10:42:54;16.30;99.90
42333;DHT22;27984;51.476;5.702;2022-11-11T10:45:30;16.50;99.90
42333;DHT22;27984;51.476;5.702;2022-11-11T10:48:04;16.50;99.90
42333;DHT22;27984;51.476;5.702;2022-11-11T10:50:40;16.50;99.90
42333;DHT22;27984;51.476;5.702;2022-11-11T10:58:36;15.40;99.90
42333;DHT22;27984;51.476;5.702;2022-11-11T11:01:05;15.00;99.90
42333;DHT22;27984;51.476;5.702;2022-11-11T11:03:35;15.30;99.90
42333;DHT22;27984;51.476;5.702;2022-11-11T11:06:24;15.50;99.90
42333;DHT22;27984;51.476;5.702;2022-11-11T11:08:54;15.50;99.90
42333;DHT22;27984;51.476;5.702;2022-11-11T11:11:29;15.50;99.90
42333;DHT22;27984;51.476;5.702;2022-11-11T11:14:02;15.40;99.90
42333;DHT22;27984;51.476;5.702;2022-11-11T11:16:36;15.50;99.90
42333;DHT22;27984;51.476;5.702;2022-11-11T11:24:32;15.00;99.90
42333;DHT22;27984;51.476;5.702;2022-11-11T11:27:06;14.80;99.90
42333;DHT22;27984;51.476;5.702;2022-11-11T11:32:29;15.00;99.90
42333;DHT22;27984;51.476;5.702;2022-11-11T11:34:56;14.90;99.90
42333;DHT22;27984;51.476;5.702;2022-11-11T11:37:24;15.20;99.90
42333;DHT22;27984;51.476;5.702;2022-11-11T11:40:19;15.40;99.90
42333;DHT22;27984;51.476;5.702;2022-11-11T11:42:52;15.70;99.90
42333;DHT22;27984;51.476;5.702;2022-11-11T11:45:22;15.70;99.90
42333;DHT22;27984;51.476;5.702;2022-11-11T11:48:20;15.70;99.90
42333;DHT22;27984;51.476;5.702;2022-11-11T11:50:51;15.80;99.90
42333;DHT22;27984;51.476;5.702;2022-11-11T11:53:34;15.80;99.90
42333;DHT22;27984;51.476;5.702;2022-11-11T11:56:34;16.20;99.90
42333;DHT22;27984;51.476;5.702;2022-11-11T12:04:41;16.30;99.90
42333;DHT22;27984;51.476;5.702;2022-11-11T12:07:19;16.20;99.90
42333;DHT22;27984;51.476;5.702;2022-11-11T12:15:40;16.80;99.90
42333;DHT22;27984;51.476;5.702;2022-11-11T12:21:15;17.00;99.90
42333;DHT22;27984;51.476;5.702;2022-11-11T12:23:55;17.00;99.90
42333;DHT22;27984;51.476;5.702;2022-11-11T12:29:18;16.80;99.90
42333;DHT22;27984;51.476;5.702;2022-11-11T12:32:15;16.90;99.90
42333;DHT22;27984;51.476;5.702;2022-11-11T12:37:56;17.90;99.90
42333;DHT22;27984;51.476;5.702;2022-11-11T12:43:20;18.10;99.90
42333;DHT22;27984;51.476;5.702;2022-11-11T12:45:48;18.40;99.90
42333;DHT22;27984;51.476;5.702;2022-11-11T12:51:19;18.50;99.90
42333;DHT22;27984;51.476;5.702;2022-11-11T12:54:11;18.80;99.90
42333;DHT22;27984;51.476;5.702;2022-11-11T12:59:19;18.70;99.40
42333;DHT22;27984;51.476;5.702;2022-11-11T13:04:48;18.90;99.10
42333;DHT22;27984;51.476;5.702;2022-11-11T13:16:10;17.90;99.90
42333;DHT22;27984;51.476;5.702;2022-11-11T13:18:49;17.50;99.90
42333;DHT22;27984;51.476;5.702;2022-11-11T13:21:20;17.30;99.90
42333;DHT22;27984;51.476;5.702;2022-11-11T13:23:47;17.20;99.90
42333;DHT22;27984;51.476;5.702;2022-11-11T13:26:33;16.90;99.90
42333;DHT22;27984;51.476;5.702;2022-11-11T13:32:09;16.40;99.90
42333;DHT22;27984;51.476;5.702;2022-11-11T13:34:37;16.10;99.90
42333;DHT22;27984;51.476;5.702;2022-11-11T13:37:06;15.90;99.90
42333;DHT22;27984;51.476;5.702;2022-11-11T13:39:38;15.80;99.90
42333;DHT22;27984;51.476;5.702;2022-11-11T13:42:05;15.70;99.90
42333;DHT22;27984;51.476;5.702;2022-11-11T13:44:53;15.60;99.90
42333;DHT22;27984;51.476;5.702;2022-11-11T13:47:33;15.50;99.90
42333;DHT22;27984;51.476;5.702;2022-11-11T13:52:34;15.30;99.90
42333;DHT22;27984;51.476;5.702;2022-11-11T13:55:07;15.30;99.90
42333;DHT22;27984;51.476;5.702;2022-11-11T13:57:48;15.20;99.90
42333;DHT22;27984;51.476;5.702;2022-11-11T14:02:45;15.10;99.90
42333;DHT22;27984;51.476;5.702;2022-11-11T14:15:52;14.80;99.90
42333;DHT22;27984;51.476;5.702;2022-11-11T14:20:53;14.60;99.90
42333;DHT22;27984;51.476;5.702;2022-11-11T14:28:48;14.50;99.90
42333;DHT22;27984;51.476;5.702;2022-11-11T14:36:28;14.40;99.90
42333;DHT22;27984;51.476;5.702;2022-11-11T14:49:49;13.90;99.90
42333;DHT22;27984;51.476;5.702;2022-11-11T14:52:40;13.90;99.90
42333;DHT22;27984;51.476;5.702;2022-11-11T14:57:49;13.70;99.90
42333;DHT22;27984;51.476;5.702;2022-11-11T15:00:30;13.60;99.90
42333;DHT22;27984;51.476;5.702;2022-11-11T15:05:46;13.40;99.90
42333;DHT22;27984;51.476;5.702;2022-11-11T15:11:16;13.30;99.90
42333;DHT22;27984;51.476;5.702;2022-11-11T15:17:04;13.00;99.90
42333;DHT22;27984;51.476;5.702;2022-11-11T15:28:16;12.40;99.90
42333;DHT22;27984;51.476;5.702;2022-11-11T15:30:59;12.20;99.90
42333;DHT22;27984;51.476;5.702;2022-11-11T15:36:44;11.90;99.90
42333;DHT22;27984;51.476;5.702;2022-11-11T15:39:18;11.70;99.90
42333;DHT22;27984;51.476;5.702;2022-11-11T15:41:50;11.60;99.90
42333;DHT22;27984;51.476;5.702;2022-11-11T15:44:24;11.50;99.90
42333;DHT22;27984;51.476;5.702;2022-11-11T15:46:51;11.30;99.90
42333;DHT22;27984;51.476;5.702;2022-11-11T15:52:01;11.10;99.90
42333;DHT22;27984;51.476;5.702;2022-11-11T15:54:27;11.10;99.90
42333;DHT22;27984;51.476;5.702;2022-11-11T15:56:53;11.00;99.90
42333;DHT22;27984;51.476;5.702;2022-11-11T15:59:30;10.90;99.90
42333;DHT22;27984;51.476;5.702;2022-11-11T16:01:59;10.80;99.90
42333;DHT22;27984;51.476;5.702;2022-11-11T16:04:25;10.80;99.90
42333;DHT22;27984;51.476;5.702;2022-11-11T16:06:50;10.70;99.90
42333;DHT22;27984;51.476;5.702;2022-11-11T16:09:24;10.70;99.90
42333;DHT22;27984;51.476;5.702;2022-11-11T16:11:53;10.60;99.90
42333;DHT22;27984;51.476;5.702;2022-11-11T16:14:33;10.60;99.90
42333;DHT22;27984;51.476;5.702;2022-11-11T16:17:02;10.50;99.90
42333;DHT22;27984;51.476;5.702;2022-11-11T16:19:34;10.50;99.90
42333;DHT22;27984;51.476;5.702;2022-11-11T16:22:10;10.40;99.90
42333;DHT22;27984;51.476;5.702;2022-11-11T16:24:38;10.30;99.90
42333;DHT22;27984;51.476;5.702;2022-11-11T16:27:06;10.30;99.90
42333;DHT22;27984;51.476;5.702;2022-11-11T16:29:37;10.20;99.90
42333;DHT22;27984;51.476;5.702;2022-11-11T16:34:48;10.10;99.90
42333;DHT22;27984;51.476;5.702;2022-11-11T16:37:15;10.10;99.90
42333;DHT22;27984;51.476;5.702;2022-11-11T16:39:42;10.00;99.90
42333;DHT22;27984;51.476;5.702;2022-11-11T16:42:23;10.00;99.90
42333;DHT22;27984;51.476;5.702;2022-11-11T16:44:59;9.90;99.90
42333;DHT22;27984;51.476;5.702;2022-11-11T16:50:14;9.80;99.90
42333;DHT22;27984;51.476;5.702;2022-11-11T16:52:52;9.80;99.90
42333;DHT22;27984;51.476;5.702;2022-11-11T16:56:04;9.80;99.90
42333;DHT22;27984;51.476;5.702;2022-11-11T16:58:16;9.70;99.90
42333;DHT22;27984;51.476;5.702;2022-11-11T17:00:43;9.60;99.90
42333;DHT22;27984;51.476;5.702;2022-11-11T17:03:11;9.60;99.90
42333;DHT22;27984;51.476;5.702;2022-11-11T17:05:59;9.60;99.90
42333;DHT22;27984;51.476;5.702;2022-11-11T17:08:40;9.50;99.90
42333;DHT22;27984;51.476;5.702;2022-11-11T17:14:03;9.30;99.90
42333;DHT22;27984;51.476;5.702;2022-11-11T17:16:29;9.30;99.90
42333;DHT22;27984;51.476;5.702;2022-11-11T17:18:55;9.20;99.90
42333;DHT22;27984;51.476;5.702;2022-11-11T17:21:23;9.20;99.90
42333;DHT22;27984;51.476;5.702;2022-11-11T17:23:48;9.20;99.90
42333;DHT22;27984;51.476;5.702;2022-11-11T17:26:17;9.20;99.90
42333;DHT22;27984;51.476;5.702;2022-11-11T17:28:42;9.10;99.90
42333;DHT22;27984;51.476;5.702;2022-11-11T17:31:09;9.10;99.90
42333;DHT22;27984;51.476;5.702;2022-11-11T17:33:35;9.10;99.90
42333;DHT22;27984;51.476;5.702;2022-11-11T17:36:01;9.10;99.90
42333;DHT22;27984;51.476;5.702;2022-11-11T17:38:27;9.00;99.90
42333;DHT22;27984;51.476;5.702;2022-11-11T17:40:53;9.00;99.90
42333;DHT22;27984;51.476;5.702;2022-11-11T17:43:24;9.00;99.90
42333;DHT22;27984;51.476;5.702;2022-11-11T17:45:49;8.90;99.90
42333;DHT22;27984;51.476;5.702;2022-11-11T17:48:15;8.90;99.90
42333;DHT22;27984;51.476;5.702;2022-11-11T17:50:41;8.80;99.90
42333;DHT22;27984;51.476;5.702;2022-11-11T17:53:07;8.80;99.90
42333;DHT22;27984;51.476;5.702;2022-11-11T17:55:33;8.80;99.90
42333;DHT22;27984;51.476;5.702;2022-11-11T17:58:00;8.80;99.90
42333;DHT22;27984;51.476;5.702;2022-11-11T18:00:26;8.80;99.90
42333;DHT22;27984;51.476;5.702;2022-11-11T18:02:55;8.80;99.90
42333;DHT22;27984;51.476;5.702;2022-11-11T18:05:21;8.80;99.90
42333;DHT22;27984;51.476;5.702;2022-11-11T18:07:49;8.70;99.90
42333;DHT22;27984;51.476;5.702;2022-11-11T18:10:17;8.70;99.90
42333;DHT22;27984;51.476;5.702;2022-11-11T18:12:43;8.60;99.90
42333;DHT22;27984;51.476;5.702;2022-11-11T18:15:09;8.60;99.90
42333;DHT22;27984;51.476;5.702;2022-11-11T18:17:38;8.50;99.90
42333;DHT22;27984;51.476;5.702;2022-11-11T18:20:07;8.50;99.90
42333;DHT22;27984;51.476;5.702;2022-11-11T18:22:33;8.50;99.90
42333;DHT22;27984;51.476;5.702;2022-11-11T18:25:01;8.50;99.90
42333;DHT22;27984;51.476;5.702;2022-11-11T18:27:27;8.40;99.90
42333;DHT22;27984;51.476;5.702;2022-11-11T18:29:53;8.30;99.90
42333;DHT22;27984;51.476;5.702;2022-11-11T18:32:19;8.30;99.90